Time;durP1;ratioP1;P1;durP2;ratioP2;P2;SDS_P1;SDS_P2;PMS_P1;PMS_P2;Temp;Humidity;BMP_temperature;BMP_pressure;BME280_temperature;BME280_humidity;BME280_pressure;Samples;Min_cycle;Max_cycle;Signal;HPM_P1;HPM_P2
2023/03/26 00:01:04;;;;;;;24.10;6.55;;;8.00;99.90;;;;;;4988835;28;20054;-74
2023/03/26 00:03:36;;;;;;;21.38;5.88;;;8.10;99.90;;;;;;4987162;28;20101;-74
2023/03/26 00:06:11;;;;;;;17.90;6.07;;;8.10;99.90;;;;;;4988574;28;20061;-74
2023/03/26 00:08:38;;;;;;;19.63;5.60;;;8.00;99.90;;;;;;4973942;28;20048;-74
2023/03/26 00:11:05;;;;;;;16.65;6.03;;;8.00;99.90;;;;;;4987835;28;20042;-74
2023/03/26 00:13:32;;;;;;;19.05;5.70;;;8.00;99.90;;;;;;4977867;28;20125;-74
2023/03/26 00:15:58;;;;;;;24.63;6.25;;;7.90;99.90;;;;;;4985044;28;20503;-74
2023/03/26 00:18:29;;;;;;;14.55;4.72;;;7.90;99.90;;;;;;4970415;28;20092;-74
2023/03/26 00:20:56;;;;;;;21.70;6.82;;;7.90;99.90;;;;;;4970953;28;20833;-74
2023/03/26 00:23:21;;;;;;;22.92;6.88;;;7.80;99.90;;;;;;4967394;28;20062;-73
2023/03/26 00:25:52;;;;;;;20.45;4.75;;;7.80;99.90;;;;;;4964891;28;20105;-74
2023/03/26 00:28:20;;;;;;;11.23;5.10;;;7.80;99.90;;;;;;4969250;28;20101;-74
2023/03/26 00:30:47;;;;;;;9.48;4.78;;;7.70;99.90;;;;;;4966819;28;20058;-74
2023/03/26 00:33:16;;;;;;;16.83;5.32;;;7.70;99.90;;;;;;4967557;28;20072;-75
2023/03/26 00:35:46;;;;;;;;;;;7.70;99.90;;;;;;4967584;28;20059;-74
2023/03/26 00:38:13;;;;;;;18.42;5.85;;;7.60;99.90;;;;;;4968172;28;19922;-74
2023/03/26 00:40:42;;;;;;;14.02;5.25;;;7.60;99.90;;;;;;4968509;28;20488;-74
2023/03/26 00:43:17;;;;;;;9.15;3.85;;;7.60;99.90;;;;;;4968908;28;20051;-75
2023/03/26 00:45:45;;;;;;;20.92;5.70;;;7.60;99.90;;;;;;4960379;28;20055;-74
2023/03/26 00:48:11;;;;;;;9.30;4.63;;;7.60;99.90;;;;;;4967386;28;20452;-74
2023/03/26 00:50:38;;;;;;;25.65;6.32;;;7.60;99.90;;;;;;4969088;28;20117;-74
2023/03/26 00:53:04;;;;;;;15.55;4.60;;;7.60;99.90;;;;;;4968667;28;20121;-74
2023/03/26 00:55:30;;;;;;;12.93;4.88;;;7.60;99.90;;;;;;4967392;28;20125;-74
2023/03/26 00:57:56;;;;;;;22.48;4.90;;;7.60;99.90;;;;;;4967942;28;20129;-74
2023/03/26 01:00:30;;;;;;;15.30;5.20;;;7.60;99.90;;;;;;4966978;28;20039;-74
2023/03/26 01:02:57;;;;;;;16.13;4.45;;;7.60;99.90;;;;;;4963176;28;20511;-74
2023/03/26 01:05:34;;;;;;;15.05;5.40;;;7.60;99.90;;;;;;4965638;28;20090;-74
2023/03/26 01:08:24;;;;;;;22.37;6.30;;;7.60;99.90;;;;;;4951069;28;20043;-74
2023/03/26 01:10:52;;;;;;;14.48;4.95;;;7.60;99.90;;;;;;4955954;28;20051;-74
2023/03/26 01:13:20;;;;;;;;;;;7.60;99.90;;;;;;4967990;28;20039;-75
2023/03/26 01:15:49;;;;;;;20.52;6.28;;;7.60;99.90;;;;;;4968285;28;19945;-74
2023/03/26 01:18:25;;;;;;;15.27;5.35;;;7.60;99.90;;;;;;4967631;28;20057;-74
2023/03/26 01:20:57;;;;;;;17.25;5.70;;;7.60;99.90;;;;;;4967027;28;20051;-74
2023/03/26 01:23:32;;;;;;;13.10;5.45;;;7.60;99.90;;;;;;4969242;28;20080;-74
2023/03/26 01:26:22;;;;;;;19.88;5.53;;;7.60;99.90;;;;;;4986096;28;20059;-74
2023/03/26 01:28:53;;;;;;;20.33;5.20;;;7.60;99.90;;;;;;4965629;28;20057;-74
2023/03/26 01:31:35;;;;;;;14.93;4.70;;;7.50;99.90;;;;;;4969826;28;20081;-74
2023/03/26 01:34:29;;;;;;;9.70;5.25;;;7.50;99.90;;;;;;4971817;28;20562;-74
2023/03/26 01:37:32;;;;;;;15.52;5.30;;;7.50;99.90;;;;;;4967469;28;20074;-74
2023/03/26 01:40:26;;;;;;;9.00;4.65;;;7.50;99.90;;;;;;4970969;28;20039;-74
2023/03/26 01:42:59;;;;;;;14.80;5.28;;;7.50;99.90;;;;;;4983209;28;20118;-74
2023/03/26 01:45:29;;;;;;;15.05;5.13;;;7.40;99.90;;;;;;4970691;28;20051;-74
2023/03/26 01:47:55;;;;;;;19.42;5.03;;;7.30;99.90;;;;;;4972100;28;20416;-74
2023/03/26 01:50:21;;;;;;;15.02;4.22;;;7.40;99.90;;;;;;4970053;28;20062;-74
2023/03/26 01:52:47;;;;;;;21.65;5.80;;;7.40;99.90;;;;;;4987216;28;20042;-74
2023/03/26 01:55:13;;;;;;;12.43;4.75;;;7.30;99.90;;;;;;4968414;28;20718;-74
2023/03/26 01:58:07;;;;;;;20.17;4.90;;;7.30;99.90;;;;;;4959579;28;20054;-74
2023/03/26 02:00:42;;;;;;;20.17;5.45;;;7.30;99.90;;;;;;4969661;28;20050;-74
2023/03/26 02:03:29;;;;;;;16.73;5.38;;;7.30;99.90;;;;;;4971557;28;20081;-74
2023/03/26 02:06:15;;;;;;;15.70;4.45;;;7.30;99.90;;;;;;4971405;28;20126;-74
2023/03/26 02:08:47;;;;;;;14.13;5.22;;;7.30;99.90;;;;;;4972157;28;20041;-74
2023/03/26 02:11:14;;;;;;;17.45;5.07;;;7.30;99.90;;;;;;4972913;28;20046;-74
2023/03/26 02:13:42;;;;;;;17.17;5.22;;;7.30;99.90;;;;;;4970128;28;20070;-74
2023/03/26 02:16:12;;;;;;;15.23;5.50;;;7.30;99.90;;;;;;4969752;28;20105;-74
2023/03/26 02:18:40;;;;;;;12.10;4.30;;;7.20;99.90;;;;;;4979960;28;20047;-74
2023/03/26 02:21:19;;;;;;;13.70;4.72;;;7.20;99.90;;;;;;4970711;28;20047;-74
2023/03/26 02:23:46;;;;;;;21.50;5.20;;;7.20;99.90;;;;;;4963505;28;20389;-74
2023/03/26 02:26:16;;;;;;;18.70;5.57;;;7.20;99.90;;;;;;4969563;28;20105;-74
2023/03/26 02:28:42;;;;;;;14.63;6.38;;;7.20;99.90;;;;;;4969180;28;20058;-74
2023/03/26 02:31:12;;;;;;;18.15;4.85;;;7.20;99.90;;;;;;4969871;28;20050;-74
2023/03/26 02:33:38;;;;;;;10.98;4.45;;;7.20;99.90;;;;;;4969685;28;20117;-74
2023/03/26 02:36:07;;;;;;;13.52;5.10;;;7.20;99.90;;;;;;4986046;28;20073;-74
2023/03/26 02:38:34;;;;;;;12.57;4.72;;;7.20;99.90;;;;;;4969240;28;20504;-74
2023/03/26 02:41:03;;;;;;;22.67;5.13;;;7.10;99.90;;;;;;4970444;28;20051;-74
2023/03/26 02:43:29;;;;;;;15.02;4.45;;;7.10;99.90;;;;;;4969645;28;20078;-74
2023/03/26 02:45:55;;;;;;;17.77;6.07;;;7.10;99.90;;;;;;4984318;28;20128;-74
2023/03/26 02:48:21;;;;;;;9.75;5.00;;;7.00;99.90;;;;;;4984917;28;20539;-74
2023/03/26 02:50:48;;;;;;;18.17;4.72;;;7.00;99.90;;;;;;4970799;28;20026;-74
2023/03/26 02:53:17;;;;;;;16.13;4.80;;;7.00;99.90;;;;;;4969134;28;20057;-74
2023/03/26 02:55:43;;;;;;;12.23;4.13;;;7.00;99.90;;;;;;4969155;28;20062;-74
2023/03/26 02:58:11;;;;;;;13.40;5.38;;;7.00;99.90;;;;;;4969779;28;20072;-74
2023/03/26 03:00:37;;;;;;;15.32;4.43;;;6.90;99.90;;;;;;4969150;28;20428;-74
2023/03/26 03:03:05;;;;;;;10.77;4.18;;;7.00;99.90;;;;;;4965541;28;20047;-74
2023/03/26 03:05:32;;;;;;;15.10;4.60;;;6.90;99.90;;;;;;4969531;28;20519;-74
2023/03/26 03:07:59;;;;;;;14.43;4.47;;;6.90;99.90;;;;;;4968584;28;20097;-74
2023/03/26 03:10:26;;;;;;;25.33;5.38;;;6.90;99.90;;;;;;4969088;28;20047;-74
2023/03/26 03:12:53;;;;;;;21.63;4.82;;;7.00;99.90;;;;;;4969078;28;20046;-74
2023/03/26 03:15:20;;;;;;;15.73;4.97;;;6.90;99.90;;;;;;4970077;28;20051;-74
2023/03/26 03:17:46;;;;;;;13.25;4.47;;;7.00;99.90;;;;;;4962907;28;20058;-74
2023/03/26 03:20:12;;;;;;;11.00;4.82;;;6.90;99.90;;;;;;4968361;28;20047;-74
2023/03/26 03:22:38;;;;;;;18.25;5.57;;;6.90;99.90;;;;;;4984915;28;20082;-74
2023/03/26 03:25:07;;;;;;;18.08;4.45;;;6.90;99.90;;;;;;4969742;28;20118;-74
2023/03/26 03:27:34;;;;;;;21.20;4.85;;;6.90;99.90;;;;;;4968653;28;20043;-74
2023/03/26 03:29:59;;;;;;;23.85;5.72;;;6.90;99.90;;;;;;4969629;28;20049;-74
2023/03/26 03:32:26;;;;;;;11.10;4.57;;;6.80;99.90;;;;;;4983388;28;20153;-74
2023/03/26 03:34:52;;;;;;;12.50;4.15;;;6.80;99.90;;;;;;4984167;28;20145;-74
2023/03/26 03:37:18;;;;;;;9.82;4.63;;;6.80;99.90;;;;;;4969637;28;20137;-75
2023/03/26 03:39:44;;;;;;;18.48;5.00;;;6.80;99.90;;;;;;4965601;28;20041;-74
2023/03/26 03:42:10;;;;;;;16.10;4.32;;;6.70;99.90;;;;;;4967754;28;20130;-74
2023/03/26 03:44:36;;;;;;;14.77;4.40;;;6.70;99.90;;;;;;4969052;28;20055;-74
2023/03/26 03:47:02;;;;;;;11.60;4.10;;;6.60;99.90;;;;;;4968318;28;20042;-74
2023/03/26 03:49:28;;;;;;;13.63;4.82;;;6.60;99.90;;;;;;4969426;28;20050;-74
2023/03/26 03:51:54;;;;;;;12.45;4.25;;;6.60;99.90;;;;;;4968389;28;20050;-74
2023/03/26 03:54:19;;;;;;;26.10;5.10;;;6.50;99.90;;;;;;4965950;28;20046;-74
2023/03/26 03:56:47;;;;;;;13.63;4.00;;;6.50;99.90;;;;;;4967844;28;20097;-74
2023/03/26 03:59:14;;;;;;;14.52;5.35;;;6.40;99.90;;;;;;4968042;28;20127;-74
2023/03/26 04:01:45;;;;;;;17.15;4.45;;;6.30;99.90;;;;;;4968518;28;20109;-74
2023/03/26 04:04:11;;;;;;;14.20;4.25;;;6.20;99.90;;;;;;4960083;28;20050;-74
2023/03/26 04:06:37;;;;;;;7.22;3.85;;;6.20;99.90;;;;;;4967987;28;20457;-74
2023/03/26 04:09:03;;;;;;;9.15;4.30;;;6.20;99.90;;;;;;4983890;28;20153;-74
2023/03/26 04:11:29;;;;;;;12.73;3.67;;;6.10;99.90;;;;;;4965696;28;20129;-74
2023/03/26 04:13:54;;;;;;;9.82;4.85;;;6.10;99.90;;;;;;4968716;28;20049;-74
2023/03/26 04:16:20;;;;;;;10.55;4.18;;;6.10;99.90;;;;;;4968163;28;20133;-74
2023/03/26 04:18:46;;;;;;;11.68;4.25;;;6.00;99.90;;;;;;4983855;28;20153;-74
2023/03/26 04:21:14;;;;;;;12.90;4.53;;;5.90;99.90;;;;;;4967600;28;20074;-74
2023/03/26 04:23:41;;;;;;;;;;;5.90;99.90;;;;;;4984299;28;20117;-74
2023/03/26 04:26:12;;;;;;;14.32;5.07;;;5.80;99.90;;;;;;4962637;28;19965;-74
2023/03/26 04:28:49;;;;;;;15.13;4.57;;;5.80;99.90;;;;;;4977337;28;20726;-74
2023/03/26 04:31:22;;;;;;;13.15;3.90;;;5.80;99.90;;;;;;4968456;28;20061;-74
2023/03/26 04:33:54;;;;;;;13.68;4.82;;;5.70;99.90;;;;;;4967174;28;20093;-74
2023/03/26 04:36:26;;;;;;;15.18;4.95;;;5.70;99.90;;;;;;4967638;28;20046;-74
2023/03/26 04:38:52;;;;;;;9.43;4.38;;;5.70;99.90;;;;;;4968057;28;20073;-74
2023/03/26 04:41:19;;;;;;;8.65;3.17;;;5.60;99.90;;;;;;4965859;28;20046;-73
2023/03/26 04:43:49;;;;;;;19.08;5.00;;;5.60;99.90;;;;;;4967702;28;20054;-74
2023/03/26 04:46:20;;;;;;;12.27;4.10;;;5.50;99.90;;;;;;4968630;28;20428;-74
2023/03/26 04:48:47;;;;;;;12.43;3.33;;;5.50;99.90;;;;;;4951853;28;20046;-74
2023/03/26 04:51:17;;;;;;;12.93;4.05;;;5.40;99.90;;;;;;4983068;28;20043;-74
2023/03/26 04:54:04;;;;;;;14.15;4.03;;;5.50;99.90;;;;;;4967620;28;20401;-74
2023/03/26 04:56:36;;;;;;;13.45;4.35;;;5.40;99.90;;;;;;4969809;28;20427;-74
2023/03/26 04:59:02;;;;;;;7.10;3.35;;;5.40;99.90;;;;;;4969893;28;20058;-74
2023/03/26 05:01:29;;;;;;;8.98;4.25;;;5.30;99.90;;;;;;4987140;28;20049;-74
2023/03/26 05:03:57;;;;;;;9.50;3.97;;;5.30;99.90;;;;;;4972629;28;20085;-74
2023/03/26 05:06:26;;;;;;;22.08;4.80;;;5.40;99.90;;;;;;4971085;28;20042;-73
2023/03/26 05:08:53;;;;;;;11.85;4.22;;;5.40;99.90;;;;;;4988139;28;20043;-74
2023/03/26 05:11:19;;;;;;;10.15;4.78;;;5.40;99.90;;;;;;4970241;28;20053;-74
2023/03/26 05:13:45;;;;;;;12.10;4.05;;;5.40;99.90;;;;;;4987243;28;20047;-74
2023/03/26 05:16:11;;;;;;;25.27;6.68;;;5.40;99.90;;;;;;4970606;28;20524;-74
2023/03/26 05:18:37;;;;;;;9.80;4.70;;;5.40;99.90;;;;;;4970741;28;20584;-74
2023/03/26 05:21:03;;;;;;;17.70;5.43;;;5.50;99.90;;;;;;4969962;28;20057;-74
2023/03/26 05:23:29;;;;;;;12.27;4.50;;;5.50;99.90;;;;;;4970691;28;20142;-74
2023/03/26 05:25:55;;;;;;;11.63;4.45;;;5.50;99.90;;;;;;4969816;28;20506;-74
2023/03/26 05:28:23;;;;;;;16.88;5.50;;;5.60;99.90;;;;;;4970538;28;20050;-74
2023/03/26 05:30:51;;;;;;;19.50;5.93;;;5.60;99.90;;;;;;4970926;28;20451;-74
2023/03/26 05:33:20;;;;;;;11.75;4.95;;;5.60;99.90;;;;;;4969167;28;20055;-74
2023/03/26 05:35:48;;;;;;;16.83;6.40;;;5.60;99.90;;;;;;4971914;28;20518;-73
2023/03/26 05:38:14;;;;;;;17.80;5.93;;;5.70;99.90;;;;;;4971103;28;20053;-74
2023/03/26 05:40:40;;;;;;;14.77;5.82;;;5.70;99.90;;;;;;4987154;28;20150;-74
2023/03/26 05:43:05;;;;;;;23.08;6.18;;;5.70;99.90;;;;;;4970013;28;20130;-74
2023/03/26 05:45:31;;;;;;;13.40;5.65;;;5.70;99.90;;;;;;4970295;28;20051;-74
2023/03/26 05:47:56;;;;;;;26.55;6.15;;;5.80;99.90;;;;;;4987130;28;20475;-74
2023/03/26 05:50:22;;;;;;;12.60;5.53;;;5.80;99.90;;;;;;4964396;28;20051;-74
2023/03/26 05:52:48;;;;;;;17.95;5.45;;;5.80;99.90;;;;;;4970325;28;20069;-74
2023/03/26 05:55:14;;;;;;;18.83;6.00;;;5.80;99.90;;;;;;4971253;28;20557;-74
2023/03/26 05:57:41;;;;;;;12.98;5.35;;;5.90;99.90;;;;;;4970523;28;20074;-74
2023/03/26 06:00:10;;;;;;;24.83;6.30;;;5.90;99.90;;;;;;4970938;28;20057;-74
2023/03/26 06:02:35;;;;;;;20.75;6.28;;;5.90;99.90;;;;;;4986367;28;20070;-74
2023/03/26 06:05:01;;;;;;;13.52;5.13;;;6.00;99.90;;;;;;4970810;28;20039;-74
2023/03/26 06:07:27;;;;;;;16.45;5.50;;;6.00;99.90;;;;;;4968659;28;20145;-74
2023/03/26 06:09:53;;;;;;;16.25;6.05;;;6.00;99.90;;;;;;4985652;28;20093;-74
2023/03/26 06:12:19;;;;;;;11.30;5.18;;;6.10;99.90;;;;;;4971335;28;20472;-74
2023/03/26 06:14:46;;;;;;;12.32;4.82;;;6.10;99.90;;;;;;4970186;28;20106;-74
2023/03/26 06:17:12;;;;;;;21.60;7.47;;;6.10;99.90;;;;;;4985364;28;20051;-74
2023/03/26 06:19:38;;;;;;;17.63;5.63;;;6.20;99.90;;;;;;4969915;28;20125;-74
2023/03/26 06:22:04;;;;;;;13.13;5.45;;;6.20;99.90;;;;;;4969843;28;20572;-74
2023/03/26 06:24:30;;;;;;;9.68;5.30;;;6.20;99.90;;;;;;4983521;28;20058;-74
2023/03/26 06:26:57;;;;;;;19.85;5.75;;;6.30;99.90;;;;;;4990304;28;20954;-74
2023/03/26 06:29:23;;;;;;;17.27;6.07;;;6.30;99.90;;;;;;4988812;28;20491;-74
2023/03/26 06:31:48;;;;;;;14.77;5.63;;;6.40;99.90;;;;;;4989520;28;20157;-74
2023/03/26 06:34:14;;;;;;;15.73;6.55;;;6.40;99.90;;;;;;4989022;28;20467;-74
2023/03/26 06:36:40;;;;;;;13.43;5.82;;;6.50;99.90;;;;;;4989071;28;20500;-74
2023/03/26 06:39:05;;;;;;;30.70;6.65;;;6.50;99.90;;;;;;4988964;28;20064;-74
2023/03/26 06:41:35;;;;;;;20.50;6.20;;;6.50;99.90;;;;;;4986806;28;20051;-74
2023/03/26 06:44:00;;;;;;;13.93;6.20;;;6.60;99.90;;;;;;4988368;28;20132;-74
2023/03/26 06:46:26;;;;;;;15.93;6.10;;;6.60;99.90;;;;;;4971881;28;20121;-74
2023/03/26 06:48:52;;;;;;;22.00;5.93;;;6.70;99.90;;;;;;4991227;28;20054;-74
2023/03/26 06:51:19;;;;;;;16.92;6.43;;;6.70;99.90;;;;;;4987246;28;20034;-74
2023/03/26 06:53:44;;;;;;;15.38;5.28;;;6.80;99.90;;;;;;4972372;28;20093;-74
2023/03/26 06:56:10;;;;;;;16.08;5.97;;;6.80;99.90;;;;;;4984209;28;20078;-74
2023/03/26 06:58:36;;;;;;;16.23;5.40;;;6.80;99.90;;;;;;4968350;28;20045;-74
2023/03/26 07:01:02;;;;;;;24.77;6.35;;;6.90;99.90;;;;;;4971625;28;20113;-74
2023/03/26 07:03:28;;;;;;;18.63;6.03;;;7.00;99.90;;;;;;4989240;28;20069;-73
2023/03/26 07:05:54;;;;;;;30.45;7.10;;;6.90;99.90;;;;;;4988753;28;20061;-73
2023/03/26 07:08:20;;;;;;;26.40;6.38;;;7.00;99.90;;;;;;4990187;28;20081;-73
2023/03/26 07:10:46;;;;;;;15.23;6.25;;;7.00;99.90;;;;;;4988892;28;20123;-73
2023/03/26 07:13:12;;;;;;;26.83;6.82;;;7.00;99.90;;;;;;4986576;28;20672;-73
2023/03/26 07:15:38;;;;;;;19.50;5.45;;;7.10;99.90;;;;;;4988214;28;20432;-73
2023/03/26 07:18:04;;;;;;;19.02;6.38;;;7.10;99.90;;;;;;4971146;28;20053;-73
2023/03/26 07:20:30;;;;;;;29.83;6.72;;;7.10;99.90;;;;;;4988349;28;20045;-73
2023/03/26 07:22:56;;;;;;;24.08;6.30;;;7.10;99.90;;;;;;4986084;28;20058;-73
2023/03/26 07:25:24;;;;;;;20.77;7.45;;;7.10;99.90;;;;;;4987445;28;20050;-73
2023/03/26 07:28:02;;;;;;;26.48;6.07;;;7.00;99.90;;;;;;4989998;28;20047;-73
2023/03/26 07:30:55;;;;;;;30.48;6.55;;;7.00;99.90;;;;;;4971779;28;20046;-73
2023/03/26 07:33:25;;;;;;;28.08;7.07;;;6.90;99.90;;;;;;4988966;28;20415;-73
2023/03/26 07:36:09;;;;;;;24.85;6.60;;;6.90;99.90;;;;;;4988915;28;20105;-73
2023/03/26 07:38:59;;;;;;;32.85;7.40;;;6.90;99.90;;;;;;4989333;28;20062;-73
2023/03/26 07:41:27;;;;;;;25.40;6.60;;;7.00;99.90;;;;;;4986896;28;20479;-73
2023/03/26 07:44:05;;;;;;;22.20;6.55;;;6.90;99.90;;;;;;4987838;28;20053;-73
2023/03/26 07:46:33;;;;;;;31.77;8.07;;;7.00;99.90;;;;;;4971359;28;20047;-73
2023/03/26 07:49:00;;;;;;;;;;;7.00;99.90;;;;;;4972643;28;20492;-73
2023/03/26 07:51:27;;;;;;;29.85;5.90;;;7.00;99.90;;;;;;4971647;28;19999;-73
2023/03/26 07:53:53;;;;;;;25.05;7.05;;;7.00;99.90;;;;;;4988980;28;20049;-73
2023/03/26 07:56:25;;;;;;;24.65;6.43;;;7.10;99.90;;;;;;4988443;28;20058;-73
2023/03/26 07:59:09;;;;;;;21.17;6.95;;;7.20;99.90;;;;;;4984997;28;20506;-73
2023/03/26 08:01:58;;;;;;;27.10;6.38;;;7.20;99.90;;;;;;4970080;28;20046;-73
2023/03/26 08:05:09;;;;;;;20.52;5.65;;;7.30;99.90;;;;;;4988311;28;20130;-73
2023/03/26 08:07:59;;;;;;;17.33;6.30;;;7.30;99.90;;;;;;4981418;28;20070;-73
2023/03/26 08:10:34;;;;;;;24.30;5.47;;;7.40;99.90;;;;;;4971293;28;20411;-74
2023/03/26 08:13:21;;;;;;;20.10;5.93;;;7.40;99.90;;;;;;4975386;28;20050;-73
2023/03/26 08:16:04;;;;;;;27.77;6.13;;;7.40;99.90;;;;;;4967671;28;20137;-73
2023/03/26 08:18:48;;;;;;;31.38;6.15;;;7.40;99.90;;;;;;4966749;28;20062;-74
2023/03/26 08:21:24;;;;;;;25.75;5.95;;;7.50;99.90;;;;;;4988106;28;20829;-73
2023/03/26 08:24:08;;;;;;;32.22;6.88;;;7.50;99.90;;;;;;4971190;28;20132;-73
2023/03/26 08:26:48;;;;;;;14.75;4.82;;;7.50;99.90;;;;;;4985030;28;20050;-73
2023/03/26 08:30:02;;;;;;;21.55;6.07;;;7.40;99.90;;;;;;4982544;28;20140;-73
2023/03/26 08:32:28;;;;;;;33.45;6.15;;;7.50;99.90;;;;;;4956376;28;20062;-73
2023/03/26 08:34:56;;;;;;;25.35;5.65;;;7.50;99.90;;;;;;4990436;28;20115;-73
2023/03/26 08:37:22;;;;;;;24.20;4.40;;;7.60;99.90;;;;;;4977184;28;20050;-74
2023/03/26 08:39:48;;;;;;;21.50;5.32;;;7.60;99.90;;;;;;4993069;28;20050;-73
2023/03/26 08:42:35;;;;;;;34.50;5.88;;;7.60;99.90;;;;;;4974365;28;20050;-73
2023/03/26 08:45:39;;;;;;;27.88;6.28;;;7.70;99.90;;;;;;4992105;28;20464;-74
2023/03/26 08:48:42;;;;;;;32.10;6.35;;;7.80;99.90;;;;;;4973535;28;20072;-74
2023/03/26 08:51:41;;;;;;;28.80;6.47;;;7.80;99.90;;;;;;4990124;28;20398;-74
2023/03/26 08:54:47;;;;;;;21.65;6.13;;;7.90;99.90;;;;;;4990340;28;20100;-73
2023/03/26 08:57:22;;;;;;;12.98;5.13;;;8.00;99.90;;;;;;4986694;28;20046;-73
2023/03/26 09:00:14;;;;;;;15.52;6.20;;;7.90;99.90;;;;;;4976742;28;20046;-74
2023/03/26 09:03:18;;;;;;;24.65;7.50;;;7.90;99.90;;;;;;4960347;28;20137;-74
2023/03/26 09:05:56;;;;;;;15.93;5.30;;;7.90;99.90;;;;;;4946828;28;20089;-74
2023/03/26 09:08:46;;;;;;;21.40;5.20;;;7.80;99.90;;;;;;4936901;28;20079;-74
2023/03/26 09:11:36;;;;;;;19.50;5.28;;;7.80;99.90;;;;;;4981775;28;20050;-74
2023/03/26 09:14:14;;;;;;;21.67;5.82;;;7.90;99.90;;;;;;4976474;28;20034;-74
2023/03/26 09:17:27;;;;;;;22.48;6.30;;;7.90;99.90;;;;;;4991272;28;20050;-73
2023/03/26 09:19:59;;;;;;;15.35;5.15;;;8.00;99.90;;;;;;4972985;28;20121;-73
2023/03/26 09:23:22;;;;;;;27.85;5.57;;;8.10;99.90;;;;;;4989326;28;20042;-73
2023/03/26 09:26:07;;;;;;;23.38;5.65;;;8.20;99.90;;;;;;4932692;29;20123;-74
2023/03/26 09:29:09;;;;;;;27.83;5.53;;;8.20;99.90;;;;;;4929818;29;20151;-74
2023/03/26 09:32:01;;;;;;;19.58;6.20;;;8.20;99.90;;;;;;4984638;28;20499;-73
2023/03/26 09:34:30;;;;;;;22.23;5.32;;;8.10;99.90;;;;;;4977899;28;20156;-73
2023/03/26 09:37:12;;;;;;;29.38;6.20;;;8.10;99.90;;;;;;4994699;28;20054;-73
2023/03/26 09:39:52;;;;;;;15.70;5.07;;;8.00;99.90;;;;;;4982994;28;20053;-73
2023/03/26 09:42:37;;;;;;;13.70;5.13;;;8.10;99.90;;;;;;4992065;28;20104;-73
2023/03/26 09:45:26;;;;;;;6.80;3.78;;;8.10;99.90;;;;;;4987430;28;20042;-73
2023/03/26 09:48:11;;;;;;;14.65;5.43;;;8.20;99.90;;;;;;4968268;28;20058;-73
2023/03/26 09:51:08;;;;;;;21.25;5.82;;;8.20;99.90;;;;;;4984294;28;20073;-74
2023/03/26 09:53:57;;;;;;;35.88;6.47;;;8.30;99.90;;;;;;4971420;28;20046;-74
2023/03/26 09:57:04;;;;;;;17.05;6.00;;;8.30;99.90;;;;;;4953998;28;20136;-73
2023/03/26 09:59:56;;;;;;;18.27;5.88;;;8.40;99.90;;;;;;4987916;28;20050;-73
2023/03/26 10:02:52;;;;;;;41.30;6.47;;;8.50;99.90;;;;;;4989047;28;20042;-73
2023/03/26 10:05:23;;;;;;;23.00;4.85;;;8.50;99.90;;;;;;4982726;28;20090;-73
2023/03/26 10:08:07;;;;;;;19.20;5.80;;;8.50;99.90;;;;;;4992729;28;20038;-73
2023/03/26 10:10:52;;;;;;;12.52;4.32;;;8.50;99.90;;;;;;4990491;28;20054;-73
2023/03/26 10:13:29;;;;;;;21.10;3.95;;;8.60;99.90;;;;;;4984794;28;20466;-73
2023/03/26 10:16:13;;;;;;;13.43;4.93;;;8.50;99.90;;;;;;4990397;28;20414;-74
2023/03/26 10:18:48;;;;;;;22.17;5.32;;;8.50;99.90;;;;;;4981723;28;20057;-73
2023/03/26 10:21:34;;;;;;;23.92;5.57;;;8.40;99.90;;;;;;4971606;28;20452;-74
2023/03/26 10:24:07;;;;;;;16.05;5.18;;;8.40;99.90;;;;;;4990057;28;20070;-74
2023/03/26 10:26:54;;;;;;;19.95;4.95;;;8.40;99.90;;;;;;4970330;28;20050;-74
2023/03/26 10:29:34;;;;;;;11.70;4.93;;;8.40;99.90;;;;;;4988661;28;20420;-74
2023/03/26 10:32:19;;;;;;;15.48;5.55;;;8.40;99.90;;;;;;4989302;28;20050;-74
2023/03/26 10:34:50;;;;;;;19.15;5.35;;;8.50;99.90;;;;;;4972630;28;20408;-74
2023/03/26 10:37:54;;;;;;;23.15;6.68;;;8.40;99.90;;;;;;4972848;28;20053;-74
2023/03/26 10:40:41;;;;;;;23.63;5.75;;;8.50;99.90;;;;;;4972657;28;20046;-74
2023/03/26 10:43:22;;;;;;;13.90;5.22;;;8.60;99.90;;;;;;4988812;28;20086;-74
2023/03/26 10:46:26;;;;;;;28.60;6.03;;;8.60;99.90;;;;;;4970934;28;20054;-74
2023/03/26 10:49:03;;;;;;;21.75;5.60;;;8.70;99.90;;;;;;4986634;28;20496;-74
2023/03/26 10:51:41;;;;;;;13.73;5.57;;;8.70;99.90;;;;;;4986830;28;20053;-74
2023/03/26 10:54:26;;;;;;;17.40;5.25;;;8.70;99.90;;;;;;4976479;28;20056;-74
2023/03/26 10:56:54;;;;;;;14.82;5.07;;;8.70;99.90;;;;;;4972774;28;20403;-74
2023/03/26 10:59:20;;;;;;;25.50;6.03;;;8.60;99.90;;;;;;4972074;28;20086;-73
2023/03/26 11:02:03;;;;;;;24.50;5.68;;;8.70;99.90;;;;;;4988775;28;20124;-73
2023/03/26 11:05:06;;;;;;;26.58;7.30;;;8.60;99.90;;;;;;4980784;28;20133;-73
2023/03/26 11:07:38;;;;;;;18.23;5.97;;;8.60;99.90;;;;;;4977830;28;20054;-73
2023/03/26 11:10:23;;;;;;;22.48;6.43;;;8.60;99.90;;;;;;4988903;28;20041;-73
2023/03/26 11:13:02;;;;;;;16.65;5.40;;;8.70;99.90;;;;;;4952395;28;20046;-74
2023/03/26 11:16:01;;;;;;;10.82;4.38;;;8.70;99.90;;;;;;4957193;28;20058;-73
2023/03/26 11:18:33;;;;;;;18.42;4.88;;;8.80;99.90;;;;;;4960482;28;20061;-74
2023/03/26 11:21:14;;;;;;;18.75;6.15;;;8.80;99.90;;;;;;4988933;28;20050;-74
2023/03/26 11:24:13;;;;;;;17.45;5.97;;;8.90;99.90;;;;;;4983162;28;20060;-74
2023/03/26 11:26:54;;;;;;;14.00;5.28;;;8.90;99.90;;;;;;4954016;28;20838;-74
2023/03/26 11:30:05;;;;;;;14.32;4.88;;;9.00;99.90;;;;;;4972173;28;20050;-74
2023/03/26 11:32:40;;;;;;;26.70;4.88;;;8.90;99.90;;;;;;4965896;28;20051;-74
2023/03/26 11:35:20;;;;;;;16.45;4.93;;;8.90;99.90;;;;;;4968440;28;20137;-73
2023/03/26 11:37:51;;;;;;;19.17;5.25;;;8.80;99.90;;;;;;4972074;28;20046;-74
2023/03/26 11:40:34;;;;;;;12.25;4.90;;;8.80;99.90;;;;;;4971370;28;20042;-74
2023/03/26 11:43:07;;;;;;;17.98;5.15;;;8.60;99.90;;;;;;4984298;28;20125;-74
2023/03/26 11:45:37;;;;;;;19.17;5.60;;;8.60;99.90;;;;;;4967034;28;20057;-74
2023/03/26 11:48:16;;;;;;;27.52;5.20;;;8.60;99.90;;;;;;4988983;28;20054;-74
2023/03/26 11:51:00;;;;;;;15.27;4.65;;;8.60;99.90;;;;;;4981847;28;20184;-74
2023/03/26 11:53:37;;;;;;;18.48;4.90;;;8.60;99.90;;;;;;4971574;28;20058;-74
2023/03/26 11:56:09;;;;;;;21.13;5.03;;;8.60;99.90;;;;;;4986262;28;20038;-73
2023/03/26 11:58:48;;;;;;;17.38;5.13;;;8.60;99.90;;;;;;4988185;28;20158;-74
2023/03/26 12:01:39;;;;;;;12.88;4.30;;;8.60;99.90;;;;;;4984220;28;20046;-72
2023/03/26 12:04:14;;;;;;;21.65;6.05;;;8.60;99.90;;;;;;4980761;28;20074;-74
2023/03/26 12:07:03;;;;;;;17.23;6.65;;;8.60;99.90;;;;;;4993351;28;20750;-74
2023/03/26 12:09:29;;;;;;;18.73;4.72;;;8.60;99.90;;;;;;4985972;28;20133;-73
2023/03/26 12:12:01;;;;;;;13.25;4.45;;;8.50;99.90;;;;;;4987153;28;20187;-74
2023/03/26 12:14:30;;;;;;;12.55;4.50;;;8.70;99.90;;;;;;4969229;28;20050;-74
2023/03/26 12:17:06;;;;;;;23.20;5.10;;;8.70;99.90;;;;;;4986455;28;20194;-73
2023/03/26 12:19:41;;;;;;;18.45;5.47;;;8.70;99.90;;;;;;4969536;28;20058;-74
2023/03/26 12:22:30;;;;;;;25.00;5.15;;;8.50;99.90;;;;;;4975816;28;20140;-73
2023/03/26 12:25:13;;;;;;;23.85;4.80;;;8.50;99.90;;;;;;4957171;28;20129;-73
2023/03/26 12:28:01;;;;;;;16.30;4.90;;;8.50;99.90;;;;;;4979662;28;20059;-73
2023/03/26 12:30:33;;;;;;;12.10;4.72;;;8.50;99.90;;;;;;4966783;28;20047;-73
2023/03/26 12:33:15;;;;;;;27.58;4.90;;;8.50;99.90;;;;;;4969395;28;20199;-73
2023/03/26 12:35:41;;;;;;;17.30;3.70;;;8.60;99.90;;;;;;4964778;28;20130;-73
2023/03/26 12:38:13;;;;;;;20.00;4.90;;;8.50;99.90;;;;;;4968320;28;20109;-73
2023/03/26 12:40:41;;;;;;;23.60;5.28;;;8.50;99.90;;;;;;4975548;28;20047;-73
2023/03/26 12:43:20;;;;;;;19.88;4.45;;;8.40;99.90;;;;;;4981199;28;20049;-73
2023/03/26 12:45:49;;;;;;;17.33;3.65;;;8.50;99.90;;;;;;4964940;28;20125;-73
2023/03/26 12:48:16;;;;;;;11.95;4.18;;;8.50;99.90;;;;;;4964553;28;20047;-73
2023/03/26 12:51:14;;;;;;;10.75;4.05;;;8.60;99.90;;;;;;4968867;28;20063;-73
2023/03/26 12:53:59;;;;;;;13.25;5.00;;;8.60;99.90;;;;;;4977066;28;20141;-73
2023/03/26 12:57:06;;;;;;;19.88;4.15;;;8.60;99.90;;;;;;4968496;28;20165;-73
2023/03/26 13:00:13;;;;;;;11.02;4.13;;;8.50;99.90;;;;;;4957483;28;20059;-73
2023/03/26 13:02:44;;;;;;;15.30;5.32;;;8.50;99.90;;;;;;4928181;29;20060;-73
2023/03/26 13:05:22;;;;;;;15.23;3.28;;;8.40;99.90;;;;;;4955945;28;20061;-73
2023/03/26 13:07:48;;;;;;;;;;;8.50;99.90;;;;;;4975064;28;20049;-73
2023/03/26 13:10:23;;;;;;;13.75;4.40;;;8.50;99.90;;;;;;4971325;28;19926;-73
2023/03/26 13:13:16;;;;;;;9.13;3.50;;;8.60;99.90;;;;;;4969107;28;20069;-73
2023/03/26 13:16:15;;;;;;;10.60;4.25;;;8.60;99.90;;;;;;4964613;28;20049;-73
2023/03/26 13:19:03;;;;;;;14.38;3.85;;;8.50;99.90;;;;;;4965198;28;20117;-73
2023/03/26 13:21:49;;;;;;;12.43;4.78;;;8.60;99.90;;;;;;4970391;28;20142;-73
2023/03/26 13:24:39;;;;;;;20.02;5.30;;;8.60;99.90;;;;;;4981736;28;20066;-73
2023/03/26 13:27:15;;;;;;;15.55;4.18;;;8.70;99.90;;;;;;4956870;28;20088;-73